Time;durP1;ratioP1;P1;durP2;ratioP2;P2;SDS_P1;SDS_P2;PMS_P1;PMS_P2;Temp;Humidity;BMP_temperature;BMP_pressure;BME280_temperature;BME280_humidity;BME280_pressure;Samples;Min_cycle;Max_cycle;Signal;HPM_P1;HPM_P2
2022/02/04 00:07:51;;;;;;;14.10;7.50;;;;;;;-5.39;72.45;99523.45;108241;1283;139952;-60
2022/02/04 00:20:14;;;;;;;11.70;6.40;;;;;;;-5.40;72.73;99515.41;108276;1283;138666;-59
2022/02/04 00:24:08;;;;;;;15.00;7.30;;;;;;;-5.41;72.79;99513.31;108397;1283;22372;-59
2022/02/04 00:26:44;;;;;;;15.10;7.80;;;;;;;-5.42;72.95;99511.08;108228;1282;139374;-60
2022/02/04 00:31:53;;;;;;;12.20;6.80;;;;;;;-5.43;73.05;99506.06;108390;1277;139176;-60
2022/02/04 00:34:23;;;;;;;14.70;7.20;;;;;;;-5.42;73.30;99509.16;109090;1276;22441;-60
2022/02/04 00:39:36;;;;;;;14.60;6.80;;;;;;;-5.41;73.10;99504.45;108496;1277;22739;-58
2022/02/04 00:42:08;;;;;;;13.60;7.40;;;;;;;-5.45;73.27;99504.79;104612;1277;22715;-57
2022/02/04 00:44:38;;;;;;;12.30;6.50;;;;;;;-5.46;73.36;99505.67;104608;1278;140214;-58
2022/02/04 00:47:30;;;;;;;15.10;7.50;;;;;;;-5.46;73.25;99508.63;104642;1280;25417;-58
2022/02/04 00:50:11;;;;;;;15.30;8.30;;;;;;;-5.48;73.26;99513.30;104630;1278;139111;-58
2022/02/04 00:52:47;;;;;;;15.80;7.80;;;;;;;-5.49;73.25;99516.98;104564;1278;25366;-58
2022/02/04 01:27:46;;;;;;;14.90;7.80;;;;;;;-5.37;74.04;99521.55;109098;1277;22457;-56
2022/02/04 01:30:17;;;;;;;19.30;7.90;;;;;;;-5.30;74.23;99520.87;109025;1277;22497;-56
2022/02/04 01:32:45;;;;;;;15.70;8.00;;;;;;;-5.25;74.10;99514.53;108964;1277;137994;-56
2022/02/04 01:35:13;;;;;;;18.70;8.70;;;;;;;-5.22;73.99;99514.73;109120;1277;23512;-57
2022/02/04 01:37:43;;;;;;;16.60;8.50;;;;;;;-5.19;73.95;99513.02;109018;1276;138504;-57
2022/02/04 01:40:11;;;;;;;21.50;10.10;;;;;;;-5.18;73.81;99510.19;109182;1277;22225;-60
2022/02/04 01:42:39;;;;;;;19.60;10.70;;;;;;;-5.15;73.70;99511.27;109126;1277;22550;-60
2022/02/04 01:45:08;;;;;;;21.50;10.20;;;;;;;-5.12;73.87;99515.97;109031;1277;137302;-60
2022/02/04 01:47:35;;;;;;;21.50;10.70;;;;;;;-5.12;73.51;99516.86;109350;1274;22452;-60
2022/02/04 01:50:04;;;;;;;15.20;8.30;;;;;;;-5.14;73.21;99521.83;109216;1274;138538;-60
2022/02/04 01:52:34;;;;;;;15.90;9.00;;;;;;;-5.17;73.30;99520.58;109422;1274;23765;-60
2022/02/04 01:55:03;;;;;;;17.20;8.50;;;;;;;-5.20;73.19;99520.98;109222;1274;139127;-59
2022/02/04 01:57:32;;;;;;;16.70;8.90;;;;;;;-5.23;73.01;99521.36;109268;1274;22521;-60
2022/02/04 02:00:00;;;;;;;16.50;8.50;;;;;;;-5.27;72.75;99520.02;109386;1273;22509;-60
2022/02/04 02:02:28;;;;;;;16.60;7.40;;;;;;;-5.32;72.67;99513.45;109251;1274;137464;-60
2022/02/04 02:04:56;;;;;;;15.00;7.40;;;;;;;-5.37;72.14;99507.91;109400;1274;22525;-61
2022/02/04 02:07:26;;;;;;;12.60;6.70;;;;;;;-5.44;72.00;99506.45;109245;1274;140146;-60
2022/02/04 02:10:07;;;;;;;14.50;6.90;;;;;;;-5.48;71.87;99507.13;109388;1274;22525;-60
2022/02/04 02:12:44;;;;;;;11.40;6.50;;;;;;;-5.52;71.69;99506.78;109348;1274;22447;-60
2022/02/04 02:37:57;;;;;;;14.90;7.30;;;;;;;-5.74;71.50;99525.31;109269;1274;139400;-59
2022/02/04 02:47:46;;;;;;;37.90;15.60;;;;;;;-5.73;72.05;99537.23;109211;1274;22490;-60
2022/02/04 03:03:11;;;;;;;22.60;10.80;;;;;;;-5.89;72.86;99546.15;109203;1274;138065;-60
2022/02/04 03:05:39;;;;;;;27.50;10.70;;;;;;;-5.92;72.85;99544.14;109321;1274;22372;-60
2022/02/04 03:08:07;;;;;;;26.40;11.00;;;;;;;-5.94;73.02;99542.41;109154;1274;139674;-61
2022/02/04 03:10:35;;;;;;;22.70;11.10;;;;;;;-5.94;73.32;99544.39;109227;1274;23187;-60
2022/02/04 03:13:06;;;;;;;22.50;11.10;;;;;;;-5.93;73.50;99544.48;109155;1274;139958;-60
2022/02/04 03:15:58;;;;;;;23.50;10.10;;;;;;;-5.91;73.38;99545.66;109268;1274;22600;-61
2022/02/04 03:18:29;;;;;;;26.00;10.90;;;;;;;-5.93;73.22;99546.39;109341;1274;22466;-61
2022/02/04 03:21:04;;;;;;;20.80;10.40;;;;;;;-5.95;73.25;99547.84;109203;1274;138235;-61
2022/02/04 03:23:37;;;;;;;25.30;11.60;;;;;;;-5.98;73.25;99545.09;109308;1274;22512;-60
2022/02/04 03:26:13;;;;;;;25.90;11.10;;;;;;;-6.01;73.38;99546.30;109249;1274;138018;-60
2022/02/04 03:28:41;;;;;;;17.70;8.90;;;;;;;-6.05;73.25;99544.35;109177;1276;23569;-60
2022/02/04 03:31:09;;;;;;;20.10;10.00;;;;;;;-6.09;73.29;99541.58;109215;1274;139905;-60
2022/02/04 03:33:39;;;;;;;19.20;9.50;;;;;;;-6.13;73.34;99542.70;109367;1274;22495;-60
2022/02/04 03:36:07;;;;;;;19.40;9.80;;;;;;;-6.19;73.49;99541.64;109315;1274;22453;-60
2022/02/04 03:38:35;;;;;;;19.60;11.40;;;;;;;-6.24;73.62;99541.91;109171;1274;138248;-60
2022/02/04 03:41:05;;;;;;;23.90;11.80;;;;;;;-6.27;73.68;99543.24;109346;1274;22469;-57
2022/02/04 03:43:34;;;;;;;23.10;11.30;;;;;;;-6.31;73.69;99541.80;109159;1274;139560;-57
2022/02/04 03:46:02;;;;;;;19.80;10.50;;;;;;;-6.35;73.73;99546.86;109197;1276;23530;-57
2022/02/04 03:48:30;;;;;;;20.20;9.30;;;;;;;-6.38;74.07;99548.04;109361;1274;23333;-57
2022/02/04 03:50:58;;;;;;;18.20;8.60;;;;;;;-6.40;74.15;99547.16;109214;1274;138131;-57
2022/02/04 03:53:25;;;;;;;19.20;7.70;;;;;;;-6.42;74.27;99547.89;109299;1274;23185;-56
2022/02/04 03:55:53;;;;;;;17.50;8.70;;;;;;;-6.45;74.46;99549.18;109158;1274;138326;-57
2022/02/04 03:58:21;;;;;;;16.60;8.20;;;;;;;-6.46;74.70;99546.29;109315;1274;23503;-57
2022/02/04 04:00:50;;;;;;;14.00;6.50;;;;;;;-6.44;74.86;99545.55;109248;1274;22466;-57
2022/02/04 04:03:20;;;;;;;16.00;7.50;;;;;;;-6.42;74.92;99543.42;109221;1274;140027;-57
2022/02/04 04:05:50;;;;;;;14.20;8.00;;;;;;;-6.38;75.15;99546.11;109285;1274;22962;-57
2022/02/04 04:08:19;;;;;;;16.60;8.00;;;;;;;-6.38;75.02;99548.77;109258;1274;137389;-57
2022/02/04 04:10:50;;;;;;;17.70;8.90;;;;;;;-6.42;75.06;99553.89;109315;1274;22557;-57
2022/02/04 04:13:18;;;;;;;17.20;8.60;;;;;;;-6.44;75.08;99557.96;109230;1274;138071;-57
2022/02/04 04:15:46;;;;;;;22.20;9.80;;;;;;;-6.47;75.07;99559.12;109115;1274;22440;-57
2022/02/04 04:18:14;;;;;;;21.40;10.20;;;;;;;-6.53;75.19;99558.45;109310;1274;22435;-56
2022/02/04 04:20:43;;;;;;;18.30;9.80;;;;;;;-6.51;75.32;99568.23;109186;1274;137792;-57
2022/02/04 04:23:12;;;;;;;19.90;8.70;;;;;;;-6.57;75.14;99572.30;109348;1274;22507;-57
2022/02/04 04:25:40;;;;;;;19.90;8.50;;;;;;;-6.60;75.42;99572.23;109206;1274;137708;-57
2022/02/04 04:28:08;;;;;;;17.70;8.50;;;;;;;-6.62;75.53;99573.29;109281;1274;22452;-57
2022/02/04 04:30:39;;;;;;;14.10;7.50;;;;;;;-6.63;75.66;99567.72;109316;1274;22575;-57
2022/02/04 04:33:07;;;;;;;17.10;8.70;;;;;;;-6.64;75.63;99570.90;109177;1274;139263;-58
2022/02/04 04:35:36;;;;;;;17.90;8.50;;;;;;;-6.67;75.81;99570.27;109347;1274;22447;-57
2022/02/04 04:44:07;;;;;;;12.70;7.00;;;;;;;-6.71;76.09;99573.16;104337;1280;139456;-60
2022/02/04 05:28:10;;;;;;;19.40;9.70;;;;;;;-7.01;76.76;99609.90;108190;1285;137902;-61
2022/02/04 05:30:38;;;;;;;23.70;10.60;;;;;;;-7.00;76.84;99619.16;108320;1286;22474;-62
2022/02/04 05:33:06;;;;;;;18.00;9.90;;;;;;;-6.99;76.92;99618.90;108234;1286;139635;-62
2022/02/04 05:35:36;;;;;;;25.60;11.40;;;;;;;-6.97;77.03;99620.16;108247;1285;22454;-62
2022/02/04 05:38:05;;;;;;;28.60;12.60;;;;;;;-6.95;77.13;99617.25;108204;1285;139709;-62
2022/02/04 05:40:40;;;;;;;46.30;18.90;;;;;;;-6.91;77.04;99614.37;108257;1286;23118;-62
2022/02/04 05:43:16;;;;;;;43.80;19.40;;;;;;;-6.85;77.04;99612.61;108259;1286;22535;-62
2022/02/04 05:48:36;;;;;;;42.30;15.90;;;;;;;-6.84;76.37;99616.40;108242;1286;22567;-59
2022/02/04 05:54:03;;;;;;;35.40;15.00;;;;;;;-6.89;75.88;99615.23;108249;1286;23819;-62
2022/02/04 05:59:13;;;;;;;84.30;40.10;;;;;;;-6.84;76.11;99615.81;108246;1286;22463;-61
2022/02/04 06:22:54;;;;;;;44.00;20.60;;;;;;;-6.46;76.42;99615.91;107504;1291;22320;-63
2022/02/04 06:25:22;;;;;;;43.90;22.80;;;;;;;-6.40;76.39;99620.00;107897;1288;22605;-63
2022/02/04 06:27:50;;;;;;;45.10;23.10;;;;;;;-6.38;76.37;99618.34;107794;1288;138015;-64
2022/02/04 06:30:17;;;;;;;45.30;20.60;;;;;;;-6.31;76.28;99621.17;107974;1288;22460;-62
2022/02/04 06:33:00;;;;;;;36.60;19.30;;;;;;;-6.28;76.12;99622.86;107556;1288;138369;-62
2022/02/04 06:35:29;;;;;;;34.70;17.40;;;;;;;-6.28;76.10;99620.73;108026;1288;22466;-62
2022/02/04 06:37:57;;;;;;;26.10;14.40;;;;;;;-6.28;76.07;99620.08;107860;1287;138770;-62
2022/02/04 06:40:25;;;;;;;23.40;13.20;;;;;;;-6.32;75.91;99617.20;107960;1287;22605;-61
2022/02/04 06:42:55;;;;;;;29.80;14.40;;;;;;;-6.35;75.92;99617.03;107988;1288;22294;-62
2022/02/04 06:45:23;;;;;;;31.00;15.40;;;;;;;-6.35;76.19;99616.30;107824;1288;139486;-62
2022/02/04 06:47:51;;;;;;;32.00;16.50;;;;;;;-6.36;76.10;99613.19;108322;1284;22603;-62
2022/02/04 06:50:20;;;;;;;32.40;17.40;;;;;;;-6.31;76.07;99614.00;108305;1282;139151;-61
2022/02/04 06:52:48;;;;;;;30.20;16.90;;;;;;;-6.30;76.20;99615.42;108416;1283;22625;-61
2022/02/04 06:55:17;;;;;;;31.10;15.00;;;;;;;-6.28;76.27;99616.08;108428;1284;22502;-61
2022/02/04 06:57:46;;;;;;;29.30;14.40;;;;;;;-6.22;76.46;99618.23;108300;1283;138103;-62
2022/02/04 07:00:15;;;;;;;32.90;16.40;;;;;;;-6.17;76.46;99624.77;108402;1282;22595;-61
2022/02/04 07:02:45;;;;;;;32.20;15.40;;;;;;;-6.14;76.27;99624.76;108299;1284;138120;-61
2022/02/04 07:05:14;;;;;;;28.50;14.50;;;;;;;-6.07;76.49;99626.45;108439;1282;22535;-61
2022/02/04 07:07:50;;;;;;;25.40;13.20;;;;;;;-6.00;76.36;99625.09;108232;1282;141716;-61
2022/02/04 07:10:33;;;;;;;32.10;14.40;;;;;;;-5.91;76.49;99626.48;108277;1283;22848;-61
2022/02/04 07:13:29;;;;;;;20.00;10.90;;;;;;;-5.83;76.26;99626.52;108362;1284;23337;-61
2022/02/04 07:17:09;;;;;;;24.80;13.10;;;;;;;-5.78;76.00;99629.73;108237;1283;139402;-61
2022/02/04 07:21:34;;;;;;;27.30;15.10;;;;;;;-5.76;75.41;99633.42;108276;1283;138742;-61
2022/02/04 07:24:02;;;;;;;34.70;15.80;;;;;;;-5.79;75.09;99632.88;108256;1284;23516;-61
2022/02/04 07:26:32;;;;;;;31.60;17.00;;;;;;;-5.84;75.13;99632.06;108290;1284;139802;-62
2022/02/04 07:29:01;;;;;;;29.20;15.80;;;;;;;-5.83;75.18;99633.23;108410;1284;22571;-61
2022/02/04 07:31:34;;;;;;;26.20;13.40;;;;;;;-5.83;74.98;99634.85;108372;1284;22501;-61
2022/02/04 07:42:02;;;;;;;22.40;11.40;;;;;;;-5.74;74.81;99622.59;109090;1276;23359;-61
2022/02/04 07:44:30;;;;;;;25.80;13.50;;;;;;;-5.74;74.88;99616.53;109097;1275;137799;-61
2022/02/04 07:46:58;;;;;;;25.80;12.90;;;;;;;-5.64;75.04;99622.02;109138;1278;23350;-61
2022/02/04 07:49:27;;;;;;;24.40;13.30;;;;;;;-5.59;74.78;99623.77;109128;1276;22489;-61
2022/02/04 07:51:55;;;;;;;26.30;13.60;;;;;;;-5.53;74.73;99626.23;109036;1276;138419;-61
2022/02/04 07:54:24;;;;;;;28.70;15.00;;;;;;;-5.51;74.40;99622.42;109196;1276;22453;-61
2022/02/04 07:56:56;;;;;;;26.30;14.20;;;;;;;-5.49;74.38;99624.93;108999;1276;139176;-62
2022/02/04 07:59:33;;;;;;;26.70;13.00;;;;;;;-5.46;74.41;99619.76;109081;1276;22469;-62
2022/02/04 08:02:01;;;;;;;30.00;14.90;;;;;;;-5.41;74.38;99619.11;109065;1276;140112;-62
2022/02/04 08:04:32;;;;;;;22.70;13.80;;;;;;;-5.36;74.28;99617.55;109172;1276;22679;-62
2022/02/04 08:07:04;;;;;;;26.30;13.10;;;;;;;-5.30;74.17;99615.89;109076;1276;23272;-62
2022/02/04 08:28:41;;;;;;;23.70;12.90;;;;;;;-4.84;73.03;99609.79;109121;1274;22450;-61
2022/02/04 08:55:55;;;;;;;26.90;12.10;;;;;;;-4.28;71.37;99600.88;109034;1276;139141;-55
2022/02/04 08:58:41;;;;;;;26.00;13.80;;;;;;;-4.18;71.18;99592.01;109088;1276;22494;-54
2022/02/04 09:01:16;;;;;;;31.50;16.30;;;;;;;-4.09;71.00;99591.20;109052;1276;22479;-54
2022/02/04 09:06:23;;;;;;;23.80;12.20;;;;;;;-3.95;70.13;99599.63;109138;1274;23192;-54
2022/02/04 09:08:55;;;;;;;26.70;13.90;;;;;;;-3.86;70.12;99603.48;109046;1276;138252;-54
2022/02/04 09:19:22;;;;;;;18.40;10.20;;;;;;;-3.60;68.81;99593.95;109148;1275;22496;-54
2022/02/04 09:24:26;;;;;;;19.00;9.60;;;;;;;-3.56;67.99;99591.34;109159;1275;22520;-54
2022/02/04 09:26:54;;;;;;;18.20;11.00;;;;;;;-3.51;67.40;99593.34;108958;1276;137845;-54
2022/02/04 09:29:22;;;;;;;22.40;10.60;;;;;;;-3.49;67.29;99596.44;109138;1276;22497;-54
2022/02/04 09:31:51;;;;;;;19.30;9.60;;;;;;;-3.44;67.17;99593.92;108998;1277;138670;-54
2022/02/04 09:34:19;;;;;;;20.10;9.30;;;;;;;-3.41;66.48;99589.70;109116;1275;23337;-55
2022/02/04 09:36:47;;;;;;;18.20;9.10;;;;;;;-3.40;66.05;99586.80;109129;1276;23948;-55
2022/02/04 09:39:15;;;;;;;13.70;7.00;;;;;;;-3.39;65.57;99587.58;109036;1276;139270;-53
2022/02/04 09:41:43;;;;;;;17.00;8.00;;;;;;;-3.40;65.38;99588.34;109101;1276;22474;-53
2022/02/04 09:44:12;;;;;;;18.00;9.80;;;;;;;-3.40;65.73;99580.08;108995;1275;138786;-53
2022/02/04 09:46:40;;;;;;;13.40;8.30;;;;;;;-3.33;65.49;99584.29;109177;1275;22528;-53
2022/02/04 09:49:17;;;;;;;15.70;7.70;;;;;;;-3.29;65.54;99579.46;109114;1276;23232;-53
2022/02/04 10:22:27;;;;;;;11.00;5.80;;;;;;;-2.82;62.25;99560.30;109144;1277;22470;-53
2022/02/04 10:25:09;;;;;;;21.60;8.70;;;;;;;-2.84;61.82;99559.06;109082;1275;137970;-53
2022/02/04 10:27:57;;;;;;;16.80;7.60;;;;;;;-2.86;61.42;99560.73;109192;1276;22465;-53
2022/02/04 10:30:26;;;;;;;11.70;7.00;;;;;;;-2.88;61.41;99561.81;109085;1277;138264;-53
2022/02/04 10:32:54;;;;;;;12.10;5.30;;;;;;;-2.91;61.25;99559.83;109068;1277;22497;-53
2022/02/04 10:35:28;;;;;;;20.80;10.30;;;;;;;-2.94;60.92;99556.94;109215;1275;22434;-53
2022/02/04 10:38:13;;;;;;;15.00;6.80;;;;;;;-2.95;60.85;99557.93;109097;1276;137615;-53
2022/02/04 10:43:32;;;;;;;14.60;7.40;;;;;;;-2.97;61.30;99555.04;104734;1277;137523;-54
2022/02/04 10:46:22;;;;;;;12.90;6.90;;;;;;;-2.94;61.25;99552.38;109220;1275;23497;-55
2022/02/04 10:49:04;;;;;;;13.90;7.10;;;;;;;-2.93;60.95;99549.80;109113;1277;137905;-55
2022/02/04 11:04:46;;;;;;;11.40;6.20;;;;;;;-2.84;61.15;99526.67;109254;1276;22443;-55
2022/02/04 11:55:30;;;;;;;18.60;8.90;;;;;;;-2.51;59.18;99496.30;109090;1275;137989;-56
2022/02/04 11:58:03;;;;;;;17.60;8.10;;;;;;;-2.50;58.97;99495.33;109203;1276;22451;-55
2022/02/04 12:00:39;;;;;;;13.10;7.30;;;;;;;-2.46;59.48;99495.41;109080;1276;139619;-56
2022/02/04 12:03:29;;;;;;;14.40;8.10;;;;;;;-2.45;59.57;99493.25;109227;1276;23132;-56
2022/02/04 12:05:57;;;;;;;13.00;7.60;;;;;;;-2.39;59.57;99497.89;109171;1276;137573;-56
2022/02/04 12:08:26;;;;;;;13.10;7.30;;;;;;;-2.35;59.57;99492.71;109195;1275;22403;-56
2022/02/04 12:10:57;;;;;;;12.80;6.70;;;;;;;-2.32;59.33;99496.56;109249;1276;22536;-56
2022/02/04 12:13:25;;;;;;;52.10;17.40;;;;;;;-2.30;58.89;99491.30;109108;1276;139347;-56
2022/02/04 12:16:07;;;;;;;26.00;10.30;;;;;;;-2.27;58.74;99492.33;109303;1276;22542;-56
2022/02/04 12:18:51;;;;;;;16.20;6.80;;;;;;;-2.25;58.74;99493.84;109181;1276;137590;-55
2022/02/04 12:21:19;;;;;;;15.50;7.10;;;;;;;-2.23;58.99;99497.34;109277;1276;23192;-56
2022/02/04 12:23:49;;;;;;;13.70;6.70;;;;;;;-2.21;58.74;99497.02;109160;1276;138292;-56
2022/02/04 12:26:20;;;;;;;13.30;7.00;;;;;;;-2.17;58.52;99497.66;109263;1276;23664;-55
2022/02/04 12:28:55;;;;;;;16.90;7.80;;;;;;;-2.17;58.20;99500.88;109263;1276;23707;-55
2022/02/04 12:31:24;;;;;;;14.20;7.80;;;;;;;-2.18;58.21;99494.65;109175;1276;137969;-55
2022/02/04 12:34:05;;;;;;;12.70;7.20;;;;;;;-2.19;58.55;99496.98;109215;1275;22427;-55
2022/02/04 12:36:34;;;;;;;18.50;8.90;;;;;;;-2.16;58.66;99498.65;108997;1276;137604;-56
2022/02/04 12:39:05;;;;;;;21.60;8.70;;;;;;;-2.13;58.24;99504.51;109189;1275;22892;-56
2022/02/04 12:41:42;;;;;;;18.30;8.80;;;;;;;-2.11;57.56;99495.38;109256;1275;22265;-56
2022/02/04 12:44:15;;;;;;;13.40;6.90;;;;;;;-2.10;56.96;99500.16;109087;1276;138582;-56
2022/02/04 12:46:48;;;;;;;11.70;6.50;;;;;;;-2.12;57.66;99501.02;109218;1276;22453;-56
2022/02/04 12:49:20;;;;;;;13.00;6.80;;;;;;;-2.10;58.21;99497.21;109178;1276;138139;-56
2022/02/04 12:54:47;;;;;;;14.50;8.00;;;;;;;-2.02;57.69;99493.81;109073;1276;138914;-56
2022/02/04 13:08:19;;;;;;;13.60;6.20;;;;;;;-2.16;55.63;99496.16;109087;1275;137746;-55
2022/02/04 13:11:04;;;;;;;9.70;4.80;;;;;;;-2.20;55.67;99497.73;109132;1276;23193;-55
2022/02/04 13:13:39;;;;;;;12.20;6.50;;;;;;;-2.25;55.55;99493.57;109034;1275;137674;-56
2022/02/04 13:16:09;;;;;;;25.10;12.50;;;;;;;-2.29;55.61;99494.87;109098;1276;22516;-56
2022/02/04 13:18:39;;;;;;;24.50;12.80;;;;;;;-2.31;55.59;99499.44;108980;1276;141383;-56
2022/02/04 13:21:07;;;;;;;16.00;8.80;;;;;;;-2.32;55.95;99500.88;109195;1276;23499;-55
2022/02/04 13:23:35;;;;;;;17.30;8.90;;;;;;;-2.33;55.89;99497.27;109129;1277;23830;-55
2022/02/04 13:26:04;;;;;;;12.40;7.20;;;;;;;-2.34;56.02;99500.35;108988;1276;139858;-55
2022/02/04 13:28:43;;;;;;;16.10;7.30;;;;;;;-2.36;56.07;99503.05;109158;1275;22445;-55
2022/02/04 13:31:13;;;;;;;23.30;10.20;;;;;;;-2.36;55.96;99503.79;109103;1276;140102;-55
2022/02/04 13:33:43;;;;;;;19.50;8.80;;;;;;;-2.37;55.99;99501.49;109149;1275;22493;-55
2022/02/04 13:41:51;;;;;;;14.90;7.40;;;;;;;-2.40;55.73;99505.38;109175;1276;22541;-55
2022/02/04 13:44:41;;;;;;;12.40;6.40;;;;;;;-2.39;56.04;99502.90;109051;1276;137439;-55
2022/02/04 13:50:38;;;;;;;7.80;4.90;;;;;;;-2.39;56.24;99499.86;109079;1277;137433;-55
2022/02/04 13:53:36;;;;;;;9.10;5.20;;;;;;;-2.41;56.03;99501.38;109096;1276;22443;-55
2022/02/04 13:56:29;;;;;;;10.00;5.60;;;;;;;-2.45;55.95;99498.52;109055;1276;138772;-55
2022/02/04 13:59:13;;;;;;;11.40;5.60;;;;;;;-2.47;56.18;99499.09;109230;1275;23545;-56
2022/02/04 14:01:52;;;;;;;10.90;6.10;;;;;;;-2.50;56.27;99497.16;109189;1275;138617;-55
2022/02/04 14:04:21;;;;;;;12.90;7.20;;;;;;;-2.51;56.76;99499.30;109249;1275;23684;-55
2022/02/04 14:06:49;;;;;;;12.00;6.50;;;;;;;-2.52;57.05;99498.38;109159;1276;137797;-55
2022/02/04 14:09:20;;;;;;;11.20;5.70;;;;;;;-2.54;57.15;99497.27;109186;1275;22601;-55
2022/02/04 14:11:48;;;;;;;13.50;7.60;;;;;;;-2.56;57.17;99499.45;109275;1276;22560;-55
2022/02/04 14:14:21;;;;;;;11.10;6.40;;;;;;;-2.59;57.02;99498.23;109135;1276;137729;-55
2022/02/04 14:16:53;;;;;;;15.10;7.60;;;;;;;-2.58;57.09;99503.16;109156;1276;22535;-55
2022/02/04 14:19:24;;;;;;;22.50;10.60;;;;;;;-2.60;57.30;99503.48;109179;1275;138580;-55
2022/02/04 14:21:52;;;;;;;13.60;7.30;;;;;;;-2.62;57.22;99503.93;109276;1275;22456;-55
2022/02/04 14:24:22;;;;;;;18.80;9.30;;;;;;;-2.64;57.46;99509.51;109116;1277;139377;-55
2022/02/04 14:26:50;;;;;;;26.40;12.00;;;;;;;-2.67;57.42;99519.08;109258;1276;23255;-55
2022/02/04 14:29:31;;;;;;;13.10;6.60;;;;;;;-2.70;57.49;99518.31;109236;1275;22468;-55
2022/02/04 14:32:06;;;;;;;11.80;7.40;;;;;;;-2.75;57.74;99517.64;109154;1276;137945;-56
2022/02/04 14:37:19;;;;;;;13.50;6.50;;;;;;;-2.78;57.64;99526.53;109132;1274;137464;-55
2022/02/04 14:51:34;;;;;;;9.40;5.20;;;;;;;-2.98;57.82;99535.25;109205;1274;24701;-55
2022/02/04 14:54:06;;;;;;;13.30;5.90;;;;;;;-3.03;57.73;99539.73;109201;1275;22419;-55
2022/02/04 15:02:10;;;;;;;13.00;6.30;;;;;;;-3.15;57.98;99555.27;109121;1276;138915;-55
2022/02/04 15:07:07;;;;;;;14.70;7.50;;;;;;;-3.21;58.11;99564.02;109141;1275;137908;-55
2022/02/04 15:09:39;;;;;;;13.90;7.10;;;;;;;-3.23;58.15;99565.32;109207;1276;22500;-55
2022/02/04 15:12:07;;;;;;;14.40;7.40;;;;;;;-3.23;58.21;99568.58;109251;1276;22477;-55
2022/02/04 15:14:42;;;;;;;15.90;6.90;;;;;;;-3.27;58.28;99569.31;109088;1276;138742;-55
2022/02/04 15:17:10;;;;;;;12.80;6.50;;;;;;;-3.31;58.37;99568.91;109237;1276;22309;-56
2022/02/04 15:19:43;;;;;;;12.00;6.60;;;;;;;-3.35;58.53;99572.53;108996;1276;137784;-55
2022/02/04 15:22:13;;;;;;;16.30;7.10;;;;;;;-3.38;58.80;99575.72;109218;1275;22499;-55
2022/02/04 15:24:41;;;;;;;12.90;7.50;;;;;;;-3.43;59.08;99577.21;109179;1276;138539;-55
2022/02/04 15:27:10;;;;;;;18.50;8.80;;;;;;;-3.55;59.43;99575.42;109138;1275;23762;-55
2022/02/04 15:29:44;;;;;;;15.90;9.20;;;;;;;-3.72;59.80;99570.36;109180;1274;22547;-55
2022/02/04 15:32:12;;;;;;;20.00;11.00;;;;;;;-3.84;60.10;99570.44;109129;1276;137680;-55
2022/02/04 15:34:40;;;;;;;19.90;10.80;;;;;;;-3.98;60.38;99574.81;109261;1276;23283;-55
2022/02/04 15:37:08;;;;;;;24.80;13.20;;;;;;;-4.11;60.59;99576.50;109137;1276;139328;-55
2022/02/04 15:39:36;;;;;;;22.20;11.70;;;;;;;-4.24;61.01;99578.69;109196;1276;22518;-55
2022/02/04 15:42:09;;;;;;;23.70;13.10;;;;;;;-4.39;61.13;99583.13;109232;1276;22457;-55
2022/02/04 15:45:59;;;;;;;24.30;13.00;;;;;;;-4.55;61.55;99580.58;109159;1275;137682;-55
2022/02/04 15:53:18;;;;;;;31.90;14.10;;;;;;;-4.99;62.76;99583.70;109243;1276;23308;-55
2022/02/04 16:01:33;;;;;;;52.10;21.60;;;;;;;-5.36;63.41;99575.77;109207;1275;138216;-55
2022/02/04 16:07:07;;;;;;;49.10;20.70;;;;;;;-5.59;63.77;99579.88;108325;1282;137957;-55
2022/02/04 16:09:43;;;;;;;45.20;20.70;;;;;;;-5.68;64.17;99580.66;108464;1282;23240;-55
2022/02/04 16:12:21;;;;;;;50.10;22.80;;;;;;;-5.77;64.35;99578.48;108356;1282;22454;-55
2022/02/04 16:15:03;;;;;;;53.20;24.40;;;;;;;-5.87;64.43;99581.46;108221;1282;137825;-55
2022/02/04 16:17:38;;;;;;;50.10;24.90;;;;;;;-5.95;64.72;99580.05;108321;1284;22547;-55
2022/02/04 16:20:19;;;;;;;55.40;27.50;;;;;;;-6.03;64.81;99580.77;108207;1283;138673;-56
2022/02/04 16:23:26;;;;;;;57.10;28.50;;;;;;;-6.13;65.20;99584.91;108314;1282;22450;-55
2022/02/04 16:31:12;;;;;;;67.50;30.60;;;;;;;-6.30;65.98;99586.48;108471;1281;137953;-55
2022/02/04 16:33:41;;;;;;;81.10;34.60;;;;;;;-6.34;65.90;99590.19;108590;1281;22537;-55
2022/02/04 16:36:14;;;;;;;76.50;34.40;;;;;;;-6.40;66.17;99590.26;108561;1281;22506;-55
2022/02/04 16:38:45;;;;;;;93.20;38.90;;;;;;;-6.45;66.41;99593.41;108850;1276;139746;-55
2022/02/04 16:41:19;;;;;;;96.50;42.80;;;;;;;-6.49;66.74;99596.77;109232;1276;22517;-53
2022/02/04 16:43:47;;;;;;;100.30;42.40;;;;;;;-6.52;66.84;99593.34;109085;1276;141419;-53
2022/02/04 16:46:15;;;;;;;99.20;42.30;;;;;;;-6.51;67.11;99592.02;109160;1275;22668;-53
2022/02/04 16:48:43;;;;;;;131.90;51.20;;;;;;;-6.53;67.26;99590.67;109119;1274;140165;-53
2022/02/04 16:51:10;;;;;;;120.50;50.00;;;;;;;-6.54;67.53;99592.13;109279;1275;22502;-54
2022/02/04 16:53:38;;;;;;;124.90;46.90;;;;;;;-6.54;67.69;99589.33;109082;1276;22531;-54
2022/02/04 16:56:06;;;;;;;125.80;49.30;;;;;;;-6.56;67.65;99595.39;109149;1276;138364;-53
2022/02/04 16:58:36;;;;;;;112.60;48.90;;;;;;;-6.60;67.67;99595.38;109124;1276;22556;-53
2022/02/04 17:01:04;;;;;;;135.40;54.50;;;;;;;-6.66;67.65;99597.02;109124;1275;139606;-53
2022/02/04 17:03:32;;;;;;;150.20;57.70;;;;;;;-6.69;67.84;99594.27;109257;1275;22427;-54
2022/02/04 17:06:03;;;;;;;165.00;60.30;;;;;;;-6.70;68.02;99603.38;109188;1276;22599;-53
2022/02/04 17:08:46;;;;;;;160.40;63.70;;;;;;;-6.70;68.10;99605.55;109091;1276;139536;-54
2022/02/04 17:11:33;;;;;;;164.50;64.10;;;;;;;-6.71;68.12;99606.53;109206;1275;23445;-53
2022/02/04 17:14:01;;;;;;;162.30;65.90;;;;;;;-6.71;68.28;99606.73;109037;1275;139092;-53
2022/02/04 17:16:29;;;;;;;175.40;67.90;;;;;;;-6.72;68.38;99608.60;109183;1275;22425;-54
2022/02/04 17:18:57;;;;;;;194.70;74.00;;;;;;;-6.70;68.54;99607.84;109039;1277;139481;-53
2022/02/04 17:21:29;;;;;;;241.90;84.70;;;;;;;-6.68;68.43;99606.95;108879;1275;481279;-53
2022/02/04 17:25:27;;;;;;;280.50;98.50;;;;;;;-6.74;68.27;99601.63;101719;1307;545424;-53
2022/02/04 17:27:56;;;;;;;265.50;97.00;;;;;;;-6.76;68.38;99607.19;103826;1286;25328;-53
2022/02/04 17:30:24;;;;;;;285.10;104.80;;;;;;;-6.82;68.48;99603.63;108180;1286;22519;-54
2022/02/04 17:32:53;;;;;;;263.40;97.80;;;;;;;-6.87;68.67;99607.65;108059;1286;137856;-54
2022/02/04 17:35:22;;;;;;;261.80;105.90;;;;;;;-6.92;68.73;99610.80;108313;1286;22571;-53
2022/02/04 17:37:52;;;;;;;252.30;100.20;;;;;;;-6.96;68.88;99611.23;108116;1286;138363;-53
2022/02/04 17:40:19;;;;;;;261.60;100.20;;;;;;;-7.04;68.93;99604.89;108249;1284;22514;-54
2022/02/04 17:42:48;;;;;;;269.10;101.10;;;;;;;-7.07;68.78;99608.70;108302;1284;139055;-54
2022/02/04 17:45:18;;;;;;;242.60;95.20;;;;;;;-7.16;68.58;99607.21;108499;1283;23633;-54
2022/02/04 17:48:03;;;;;;;242.60;96.30;;;;;;;-7.22;68.99;99609.93;108489;1283;22423;-53
2022/02/04 17:50:50;;;;;;;239.90;97.60;;;;;;;-7.28;69.13;99608.75;108448;1284;138745;-53
2022/02/04 17:53:23;;;;;;;244.60;97.20;;;;;;;-7.33;69.28;99609.20;108416;1284;23575;-53
2022/02/04 17:55:57;;;;;;;313.60;120.60;;;;;;;-7.36;69.41;99608.41;108249;1286;137765;-54
2022/02/04 18:07:16;;;;;;;336.30;123.80;;;;;;;-7.50;69.57;99602.77;108461;1284;22494;-55
2022/02/04 18:09:15;;;;;;;331.80;123.10;;;;;;;-7.51;69.69;99604.52;108436;1283;23399;-54
2022/02/04 18:11:43;;;;;;;307.30;115.30;;;;;;;-7.49;70.00;99606.09;108547;1282;23232;-54
2022/02/04 18:14:12;;;;;;;285.70;112.10;;;;;;;-7.42;70.47;99606.73;108481;1282;139325;-54
2022/02/04 18:16:41;;;;;;;275.30;108.00;;;;;;;-7.38;70.60;99604.54;108570;1284;22547;-54
2022/02/04 18:19:09;;;;;;;284.40;109.50;;;;;;;-7.32;70.71;99605.02;108483;1283;139866;-54
2022/02/04 18:21:37;;;;;;;292.10;111.70;;;;;;;-7.28;70.69;99603.42;108464;1284;23329;-54
2022/02/04 18:24:05;;;;;;;271.80;108.50;;;;;;;-7.27;70.34;99601.22;108613;1283;22540;-54